createdAt,value
2018-01-28T00:02:12.975Z,5.20
2018-01-28T00:04:41.285Z,4.65
2018-01-28T00:07:09.677Z,4.60
2018-01-28T00:09:37.996Z,4.77
2018-01-28T00:12:06.342Z,4.70
2018-01-28T00:14:35.586Z,3.72
2018-01-28T00:17:03.922Z,3.77
2018-01-28T00:19:32.242Z,4.90
2018-01-28T00:22:00.622Z,4.75
2018-01-28T00:24:28.922Z,4.40
2018-01-28T00:26:57.261Z,4.70
2018-01-28T00:29:25.581Z,4.10
2018-01-28T00:31:53.917Z,4.30
2018-01-28T00:34:23.147Z,4.53
2018-01-28T00:36:51.489Z,4.40
2018-01-28T00:39:20.694Z,3.90
2018-01-28T00:41:49.030Z,4.10
2018-01-28T00:44:27.945Z,4.28
2018-01-28T00:46:56.278Z,4.40
2018-01-28T00:49:24.592Z,3.87
2018-01-28T00:51:52.938Z,4.47
2018-01-28T00:54:21.262Z,4.83
2018-01-28T00:56:49.605Z,4.90
2018-01-28T00:59:17.925Z,4.70
2018-01-28T01:01:46.262Z,4.30
2018-01-28T01:04:14.577Z,3.53
2018-01-28T01:06:42.917Z,5.17
2018-01-28T01:09:11.237Z,3.80
2018-01-28T01:11:39.573Z,4.35
2018-01-28T01:14:07.885Z,4.87
2018-01-28T01:16:36.217Z,3.83
2018-01-28T01:19:04.578Z,4.27
2018-01-28T01:21:32.917Z,3.90
2018-01-28T01:24:01.233Z,4.73
2018-01-28T01:26:29.581Z,4.27
2018-01-28T01:28:57.927Z,4.30
2018-01-28T01:31:26.222Z,4.50
2018-01-28T01:33:54.561Z,4.62
2018-01-28T01:36:22.878Z,4.70
2018-01-28T01:38:51.212Z,4.17
2018-01-28T01:41:19.528Z,5.05
2018-01-28T01:43:47.861Z,4.30
2018-01-28T01:46:16.173Z,3.87
2018-01-28T01:48:44.509Z,4.40
2018-01-28T01:51:12.825Z,4.68
2018-01-28T01:53:41.153Z,4.35
2018-01-28T01:56:09.466Z,4.05
2018-01-28T01:58:37.798Z,4.15
2018-01-28T02:01:06.109Z,4.15
2018-01-28T02:03:34.442Z,3.45
2018-01-28T02:06:02.753Z,5.10
2018-01-28T02:08:31.089Z,4.10
2018-01-28T02:10:59.399Z,4.25
2018-01-28T02:13:27.738Z,4.15
2018-01-28T02:15:56.053Z,5.30
2018-01-28T02:18:24.385Z,4.90
2018-01-28T02:20:52.697Z,4.53
2018-01-28T02:23:21.030Z,4.43
2018-01-28T02:25:49.346Z,4.05
2018-01-28T02:28:17.677Z,3.55
2018-01-28T02:30:45.985Z,4.40
2018-01-28T02:33:14.343Z,4.68
2018-01-28T02:35:42.646Z,4.22
2018-01-28T02:38:10.974Z,3.80
2018-01-28T02:40:39.285Z,4.30
2018-01-28T02:43:07.617Z,4.45
2018-01-28T02:45:37.351Z,4.78
2018-01-28T02:48:05.684Z,4.57
2018-01-28T02:50:33.999Z,4.10
2018-01-28T02:53:02.327Z,4.12
2018-01-28T02:55:30.641Z,3.20
2018-01-28T02:57:58.977Z,4.32
2018-01-28T03:00:27.287Z,3.40
2018-01-28T03:02:55.616Z,4.00
2018-01-28T03:05:23.937Z,4.10
2018-01-28T03:07:52.271Z,4.20
2018-01-28T03:10:20.581Z,4.28
2018-01-28T03:12:48.912Z,4.03
2018-01-28T03:15:17.220Z,4.55
2018-01-28T03:17:45.557Z,4.90
2018-01-28T03:20:13.867Z,4.35
2018-01-28T03:22:42.201Z,4.50
2018-01-28T03:25:10.509Z,5.25
2018-01-28T03:27:38.849Z,5.20
2018-01-28T03:30:07.166Z,5.05
2018-01-28T03:32:35.482Z,4.60
2018-01-28T03:35:03.826Z,5.20
2018-01-28T03:37:32.143Z,5.87
2018-01-28T03:40:00.474Z,5.45
2018-01-28T03:42:28.803Z,6.60
2018-01-28T03:44:57.113Z,6.05
2018-01-28T03:47:25.431Z,5.72
2018-01-28T03:49:53.757Z,6.05
2018-01-28T03:52:22.069Z,5.80
2018-01-28T03:54:50.406Z,6.35
2018-01-28T03:57:18.721Z,5.75
2018-01-28T03:59:47.049Z,6.35
2018-01-28T04:02:15.357Z,6.87
2018-01-28T04:04:43.693Z,6.55
2018-01-28T04:07:12.034Z,6.12
2018-01-28T04:09:40.349Z,5.22
2018-01-28T04:12:08.656Z,5.20
2018-01-28T04:14:36.992Z,5.53
2018-01-28T04:17:05.309Z,5.62
2018-01-28T04:19:33.643Z,4.90
2018-01-28T04:22:01.953Z,4.97
2018-01-28T04:24:30.286Z,5.07
2018-01-28T04:26:58.593Z,5.35
2018-01-28T04:29:26.943Z,5.62
2018-01-28T04:31:55.253Z,5.05
2018-01-28T04:34:23.581Z,5.40
2018-01-28T04:36:51.897Z,7.43
2018-01-28T04:39:20.265Z,6.60
2018-01-28T04:41:48.573Z,6.80
2018-01-28T04:44:16.906Z,7.12
2018-01-28T04:46:45.220Z,7.20
2018-01-28T04:49:13.557Z,8.35
2018-01-28T04:51:41.874Z,8.93
2018-01-28T04:54:10.214Z,8.10
2018-01-28T04:56:38.529Z,8.40
2018-01-28T04:59:06.869Z,9.35
2018-01-28T05:01:37.578Z,9.57
2018-01-28T05:04:05.917Z,9.65
2018-01-28T05:06:34.233Z,9.23
2018-01-28T05:09:02.581Z,11.23
2018-01-28T05:11:30.910Z,12.07
2018-01-28T05:13:59.257Z,12.88
2018-01-28T05:16:27.586Z,12.05
2018-01-28T05:18:55.934Z,12.73
2018-01-28T05:21:24.281Z,13.68
2018-01-28T05:23:52.666Z,13.43
2018-01-28T05:26:20.989Z,13.02
2018-01-28T05:28:49.333Z,14.48
2018-01-28T05:31:17.665Z,15.05
2018-01-28T05:33:45.986Z,14.50
2018-01-28T05:36:14.330Z,16.02
2018-01-28T05:38:42.653Z,16.20
2018-01-28T05:41:10.997Z,14.70
2018-01-28T05:43:39.322Z,15.65
2018-01-28T05:46:07.672Z,17.25
2018-01-28T05:48:35.990Z,16.80
2018-01-28T05:51:04.338Z,13.85
2018-01-28T05:53:32.694Z,15.32
2018-01-28T05:56:01.021Z,15.70
2018-01-28T05:58:29.346Z,16.15
2018-01-28T06:00:57.689Z,16.37
2018-01-28T06:03:26.014Z,17.73
2018-01-28T06:05:54.357Z,16.35
2018-01-28T06:08:22.677Z,16.80
2018-01-28T06:10:51.026Z,18.30
2018-01-28T06:13:19.350Z,18.02
2018-01-28T06:15:47.699Z,16.75
2018-01-28T06:18:16.022Z,17.52
2018-01-28T06:20:44.369Z,16.83
2018-01-28T06:23:12.693Z,17.70
2018-01-28T06:25:41.033Z,16.62
2018-01-28T06:28:09.358Z,17.35
2018-01-28T06:30:37.701Z,18.65
2018-01-28T06:33:06.025Z,19.08
2018-01-28T06:35:34.369Z,18.42
2018-01-28T06:38:03.510Z,17.80
2018-01-28T06:40:31.853Z,16.98
2018-01-28T06:43:00.176Z,17.00
2018-01-28T06:45:28.526Z,16.60
2018-01-28T06:47:56.845Z,15.88
2018-01-28T06:50:25.189Z,17.02
2018-01-28T06:52:53.517Z,14.73
2018-01-28T06:55:21.857Z,16.87
2018-01-28T06:57:50.177Z,17.77
2018-01-28T07:00:18.522Z,16.75
2018-01-28T07:02:46.846Z,18.15
2018-01-28T07:05:15.190Z,15.23
2018-01-28T07:07:43.513Z,17.02
2018-01-28T07:10:11.857Z,17.60
2018-01-28T07:12:40.185Z,17.62
2018-01-28T07:15:08.530Z,17.92
2018-01-28T07:17:36.858Z,16.10
2018-01-28T07:20:05.209Z,16.30
2018-01-28T07:22:33.537Z,18.40
2018-01-28T07:25:01.885Z,19.15
2018-01-28T07:27:30.218Z,17.37
2018-01-28T07:29:58.565Z,17.95
2018-01-28T07:32:26.890Z,17.20
2018-01-28T07:34:55.214Z,17.52
2018-01-28T07:37:23.561Z,16.75
2018-01-28T07:39:51.885Z,18.45
2018-01-28T07:42:20.233Z,15.50
2018-01-28T07:44:48.553Z,17.65
2018-01-28T07:47:16.906Z,20.88
2018-01-28T07:49:45.229Z,18.27
2018-01-28T07:52:13.577Z,19.95
2018-01-28T07:54:41.901Z,19.87
2018-01-28T07:57:10.250Z,22.10
2018-01-28T07:59:38.582Z,20.50
2018-01-28T08:02:06.926Z,21.35
2018-01-28T08:04:35.258Z,21.25
2018-01-28T08:07:03.604Z,18.98
2018-01-28T08:09:31.930Z,19.15
2018-01-28T08:12:15.038Z,17.33
2018-01-28T08:14:43.366Z,20.30
2018-01-28T08:17:11.712Z,20.75
2018-01-28T08:19:40.042Z,19.25
2018-01-28T08:22:08.388Z,17.90
2018-01-28T08:24:36.718Z,20.98
2018-01-28T08:30:07.422Z,17.67
2018-01-28T08:32:35.789Z,17.55
2018-01-28T08:35:04.123Z,20.20
2018-01-28T08:37:32.514Z,17.52
2018-01-28T08:40:00.885Z,17.48
2018-01-28T08:42:29.193Z,17.47
2018-01-28T08:44:57.529Z,17.67
2018-01-28T08:47:25.878Z,19.17
2018-01-28T08:49:54.201Z,17.62
2018-01-28T08:52:22.552Z,18.00
2018-01-28T08:54:50.878Z,19.17
2018-01-28T08:57:19.272Z,16.97
2018-01-28T08:59:47.672Z,17.57
2018-01-28T09:02:16.018Z,20.30
2018-01-28T09:04:44.343Z,19.53
2018-01-28T09:07:12.689Z,16.73
2018-01-28T09:09:41.017Z,19.00
2018-01-28T09:12:09.375Z,18.40
2018-01-28T09:14:37.701Z,19.70
2018-01-28T09:17:06.049Z,15.48
2018-01-28T09:19:34.377Z,16.55
2018-01-28T09:22:02.726Z,15.30
2018-01-28T09:24:31.054Z,15.50
2018-01-28T09:26:59.406Z,14.90
2018-01-28T09:29:27.733Z,14.38
2018-01-28T09:31:56.081Z,15.57
2018-01-28T09:34:24.414Z,12.45
2018-01-28T09:36:52.757Z,14.77
2018-01-28T09:39:21.093Z,15.63
2018-01-28T09:41:49.441Z,14.40
2018-01-28T09:44:17.778Z,13.47
2018-01-28T09:46:46.118Z,14.67
2018-01-28T09:49:14.444Z,14.60
2018-01-28T09:51:42.793Z,14.52
2018-01-28T09:54:11.118Z,16.47
2018-01-28T09:56:39.470Z,16.77
2018-01-28T09:59:07.814Z,14.43
2018-01-28T10:01:36.153Z,15.10
2018-01-28T10:04:04.477Z,13.70
2018-01-28T10:06:32.829Z,15.43
2018-01-28T10:09:01.157Z,15.75
2018-01-28T10:11:29.505Z,15.50
2018-01-28T10:13:57.832Z,14.63
2018-01-28T10:16:26.162Z,14.70
2018-01-28T10:18:54.549Z,14.55
2018-01-28T10:21:22.898Z,16.70
2018-01-28T10:23:51.244Z,15.50
2018-01-28T10:26:19.578Z,13.90
2018-01-28T10:28:48.033Z,13.47
2018-01-28T10:31:16.342Z,13.68
2018-01-28T10:33:44.713Z,15.00
2018-01-28T10:36:13.993Z,13.13
2018-01-28T10:38:42.345Z,14.60
2018-01-28T10:41:10.678Z,14.07
2018-01-28T10:43:39.025Z,13.03
2018-01-28T10:46:07.370Z,13.18
2018-01-28T10:48:35.731Z,12.48
2018-01-28T10:51:04.059Z,11.70
2018-01-28T10:53:53.713Z,11.63
2018-01-28T10:56:26.846Z,12.00
2018-01-28T10:58:55.201Z,12.27
2018-01-28T11:01:23.538Z,10.85
2018-01-28T11:03:51.893Z,9.63
2018-01-28T11:06:21.963Z,9.85
2018-01-28T11:08:50.317Z,9.50
2018-01-28T11:11:18.641Z,11.27
2018-01-28T11:13:46.989Z,9.18
2018-01-28T11:16:16.298Z,8.75
2018-01-28T11:18:44.682Z,9.50
2018-01-28T11:21:12.985Z,10.23
2018-01-28T11:23:41.333Z,11.90
2018-01-28T11:26:09.666Z,11.23
2018-01-28T11:28:38.022Z,10.70
2018-01-28T11:31:06.349Z,9.67
2018-01-28T11:33:34.797Z,10.57
2018-01-28T11:36:04.025Z,11.23
2018-01-28T11:38:32.376Z,12.23
2018-01-28T11:41:00.734Z,11.43
2018-01-28T11:43:29.149Z,12.00
2018-01-28T11:45:57.491Z,11.20
2018-01-28T11:48:25.844Z,12.15
2018-01-28T11:50:54.181Z,11.57
2018-01-28T11:53:22.536Z,12.77
2018-01-28T11:55:50.865Z,11.55
2018-01-28T11:58:19.225Z,12.13
2018-01-28T12:00:47.577Z,13.85
2018-01-28T12:03:15.929Z,12.80
2018-01-28T12:05:45.281Z,12.03
2018-01-28T12:08:13.635Z,13.17
2018-01-28T12:10:41.974Z,11.93
2018-01-28T12:13:10.330Z,12.75
2018-01-28T12:15:38.670Z,14.23
2018-01-28T12:18:07.030Z,14.13
2018-01-28T12:20:35.358Z,13.83
2018-01-28T12:23:03.718Z,11.67
2018-01-28T12:25:33.090Z,14.98
2018-01-28T12:28:01.441Z,13.30
2018-01-28T12:30:29.776Z,13.73
2018-01-28T12:32:58.133Z,13.73
2018-01-28T12:35:26.469Z,14.10
2018-01-28T12:37:54.842Z,15.80
2018-01-28T12:40:23.181Z,12.20
2018-01-28T12:42:51.526Z,11.98
2018-01-28T12:45:19.884Z,13.10
2018-01-28T12:47:48.227Z,13.18
2018-01-28T12:50:16.583Z,13.27
2018-01-28T12:52:44.918Z,12.43
2018-01-28T12:55:13.281Z,12.00
2018-01-28T12:57:41.621Z,11.47
2018-01-28T13:00:09.982Z,11.70
2018-01-28T13:02:38.317Z,10.97
2018-01-28T13:05:07.554Z,12.47
2018-01-28T13:07:35.887Z,11.73
2018-01-28T13:10:04.241Z,12.40
2018-01-28T13:12:32.582Z,11.25
2018-01-28T13:15:00.942Z,11.00
2018-01-28T13:17:29.270Z,9.93
2018-01-28T13:19:57.617Z,9.60
2018-01-28T13:22:25.953Z,9.60
2018-01-28T13:24:54.361Z,10.23
2018-01-28T13:27:22.693Z,10.00
2018-01-28T13:29:51.041Z,10.63
2018-01-28T13:32:19.387Z,10.13
2018-01-28T13:34:47.750Z,9.48
2018-01-28T13:37:16.073Z,9.70
2018-01-28T13:39:44.421Z,9.50
2018-01-28T13:42:12.758Z,8.23
2018-01-28T13:44:42.188Z,6.87
2018-01-28T13:47:10.498Z,7.45
2018-01-28T13:49:38.855Z,7.47
2018-01-28T13:52:07.270Z,5.87
2018-01-28T13:54:35.697Z,7.20
2018-01-28T13:57:04.010Z,7.22
2018-01-28T13:59:32.450Z,6.93
2018-01-28T14:02:01.277Z,7.80
2018-01-28T14:04:29.637Z,7.27
2018-01-28T14:06:58.114Z,9.47
2018-01-28T14:09:26.500Z,6.13
2018-01-28T14:11:54.822Z,8.17
2018-01-28T14:14:23.173Z,7.78
2018-01-28T14:16:51.525Z,7.57
2018-01-28T14:19:19.873Z,7.68
2018-01-28T14:21:48.254Z,8.33
2018-01-28T14:24:18.142Z,8.13
2018-01-28T14:26:46.516Z,6.53
2018-01-28T14:29:14.866Z,6.93
2018-01-28T14:31:43.194Z,7.60
2018-01-28T14:34:11.541Z,7.90
2018-01-28T14:36:39.881Z,7.03
2018-01-28T14:39:08.244Z,6.77
2018-01-28T14:41:36.604Z,7.35
2018-01-28T14:44:04.941Z,7.68
2018-01-28T14:46:33.288Z,7.00
2018-01-28T14:49:01.593Z,7.60
2018-01-28T14:51:29.947Z,8.07
2018-01-28T14:53:58.337Z,7.68
2018-01-28T14:56:26.695Z,7.30
2018-01-28T14:58:55.089Z,7.75
2018-01-28T15:01:23.571Z,7.43
2018-01-28T15:03:51.910Z,9.17
2018-01-28T15:06:20.262Z,9.43
2018-01-28T15:08:48.626Z,10.10
2018-01-28T15:11:16.945Z,10.83
2018-01-28T15:13:45.278Z,9.93
2018-01-28T15:16:13.713Z,10.13
2018-01-28T15:18:42.076Z,8.70
2018-01-28T15:21:10.446Z,10.77
2018-01-28T15:23:38.781Z,12.23
2018-01-28T15:26:07.138Z,10.17
2018-01-28T15:28:35.494Z,11.93
2018-01-28T15:31:03.837Z,11.30
2018-01-28T15:33:32.171Z,12.70
2018-01-28T15:36:01.422Z,11.23
2018-01-28T15:38:29.758Z,14.13
2018-01-28T15:40:58.109Z,14.37
2018-01-28T15:43:26.453Z,12.70
2018-01-28T15:45:55.844Z,14.75
2018-01-28T15:48:24.154Z,14.17
2018-01-28T15:50:52.601Z,13.40
2018-01-28T15:53:20.958Z,12.63
2018-01-28T15:55:49.318Z,13.90
2018-01-28T15:58:17.658Z,13.63
2018-01-28T16:00:46.013Z,13.15
2018-01-28T16:03:14.345Z,12.03
2018-01-28T16:05:43.593Z,12.80
2018-01-28T16:08:11.929Z,12.60
2018-01-28T16:10:40.287Z,12.03
2018-01-28T16:13:08.622Z,13.60
2018-01-28T16:15:37.310Z,13.00
2018-01-28T16:18:05.641Z,15.02
2018-01-28T16:20:33.993Z,14.33
2018-01-28T16:23:02.329Z,13.03
2018-01-28T16:25:30.689Z,15.13
2018-01-28T16:27:59.013Z,13.50
2018-01-28T16:30:27.369Z,13.57
2018-01-28T16:32:55.705Z,14.30
2018-01-28T16:35:24.065Z,14.80
2018-01-28T16:37:52.411Z,12.82
2018-01-28T16:40:20.789Z,15.30
2018-01-28T16:42:49.942Z,15.48
2018-01-28T16:45:18.293Z,15.70
2018-01-28T16:47:46.635Z,12.50
2018-01-28T16:50:14.998Z,14.35
2018-01-28T16:52:43.331Z,14.10
2018-01-28T16:55:11.666Z,13.03
2018-01-28T16:57:40.021Z,15.05
2018-01-28T17:00:08.349Z,14.70
2018-01-28T17:02:37.629Z,14.13
2018-01-28T17:05:05.961Z,14.57
2018-01-28T17:07:34.312Z,15.43
2018-01-28T17:10:02.650Z,14.70
2018-01-28T17:12:31.005Z,14.40
2018-01-28T17:14:59.340Z,16.23
2018-01-28T17:17:27.694Z,14.93
2018-01-28T17:19:56.025Z,13.20
2018-01-28T17:22:25.345Z,18.05
2018-01-28T17:24:53.678Z,16.20
2018-01-28T17:27:22.048Z,18.50
2018-01-28T17:29:50.492Z,16.53
2018-01-28T17:32:18.865Z,19.12
2018-01-28T17:34:47.279Z,17.10
2018-01-28T17:37:15.807Z,17.08
2018-01-28T17:39:46.177Z,19.30
2018-01-28T17:42:14.893Z,20.23
2018-01-28T17:44:43.225Z,21.97
2018-01-28T17:47:11.577Z,22.67
2018-01-28T17:49:39.909Z,23.45
2018-01-28T17:52:08.265Z,21.30
2018-01-28T17:54:36.602Z,20.40
2018-01-28T17:57:04.959Z,21.33
2018-01-28T17:59:33.328Z,21.90
2018-01-28T18:02:01.677Z,24.10
2018-01-28T18:04:30.022Z,23.30
2018-01-28T18:06:58.413Z,21.98
2018-01-28T18:09:26.774Z,21.33
2018-01-28T18:11:55.137Z,23.98
2018-01-28T18:14:23.526Z,23.97
2018-01-28T18:16:51.874Z,27.00
2018-01-28T18:19:20.232Z,22.27
2018-01-28T18:21:48.591Z,24.42
2018-01-28T18:24:16.921Z,22.27
2018-01-28T18:26:45.297Z,24.20
2018-01-28T18:29:13.685Z,22.73
2018-01-28T18:31:41.988Z,26.10
2018-01-28T18:34:10.321Z,24.40
2018-01-28T18:36:38.681Z,23.62
2018-01-28T18:39:07.017Z,25.05
2018-01-28T18:41:35.369Z,29.00
2018-01-28T18:44:03.707Z,24.23
2018-01-28T18:46:32.066Z,27.23
2018-01-28T18:49:00.393Z,24.35
2018-01-28T18:51:28.748Z,28.80
2018-01-28T18:53:57.077Z,27.17
2018-01-28T18:56:25.414Z,26.60
2018-01-28T18:58:53.780Z,28.73
2018-01-28T19:01:22.111Z,29.17
2018-01-28T19:03:50.476Z,27.27
2018-01-28T19:06:19.728Z,28.10
2018-01-28T19:08:48.096Z,27.27
2018-01-28T19:11:16.420Z,28.60
2018-01-28T19:13:44.778Z,27.97
2018-01-28T19:16:13.118Z,26.23
2018-01-28T19:18:42.225Z,26.25
2018-01-28T19:21:10.566Z,25.60
2018-01-28T19:23:38.918Z,25.57
2018-01-28T19:26:07.257Z,27.98
2018-01-28T19:28:35.634Z,26.42
2018-01-28T19:31:03.973Z,25.27
2018-01-28T19:33:32.327Z,27.90
2018-01-28T19:36:01.572Z,25.08
2018-01-28T19:38:29.934Z,26.57
2018-01-28T19:40:58.265Z,23.50
2018-01-28T19:43:26.622Z,27.03
2018-01-28T19:45:54.957Z,26.03
2018-01-28T19:48:23.313Z,27.47
2018-01-28T19:50:51.649Z,28.50
2018-01-28T19:53:20.009Z,30.20
2018-01-28T19:55:48.341Z,30.43
2018-01-28T19:58:16.721Z,26.33
2018-01-28T20:00:45.068Z,28.15
2018-01-28T20:03:13.418Z,28.10
2018-01-28T20:05:41.753Z,27.10
2018-01-28T20:08:10.146Z,25.87
2018-01-28T20:10:38.477Z,26.83
2018-01-28T20:13:06.913Z,26.03
2018-01-28T20:15:35.261Z,24.75
2018-01-28T20:18:04.027Z,24.05
2018-01-28T20:20:32.363Z,25.57
2018-01-28T20:23:00.718Z,24.73
2018-01-28T20:25:29.050Z,26.60
2018-01-28T20:27:57.401Z,25.23
2018-01-28T20:30:25.734Z,25.13
2018-01-28T20:32:54.099Z,23.05
2018-01-28T20:35:22.430Z,24.30
2018-01-28T20:37:50.780Z,25.67
2018-01-28T20:40:19.469Z,26.30
2018-01-28T20:42:47.830Z,26.10
2018-01-28T20:45:16.174Z,27.13
2018-01-28T20:47:44.529Z,26.77
2018-01-28T20:50:12.865Z,25.98
2018-01-28T20:52:41.399Z,27.27
2018-01-28T20:55:09.742Z,26.25
2018-01-28T20:57:38.178Z,22.93
2018-01-28T21:00:06.505Z,23.37
2018-01-28T21:02:34.849Z,25.42
2018-01-28T21:05:03.203Z,25.10
2018-01-28T21:07:31.545Z,25.73
2018-01-28T21:09:59.937Z,26.42
2018-01-28T21:12:28.281Z,23.43
2018-01-28T21:14:56.648Z,23.57
2018-01-28T21:17:25.048Z,23.27
2018-01-28T21:19:53.397Z,23.40
2018-01-28T21:22:21.729Z,23.83
2018-01-28T21:24:50.130Z,24.27
2018-01-28T21:27:18.504Z,21.93
2018-01-28T21:29:46.858Z,22.40
2018-01-28T21:32:15.210Z,23.30
2018-01-28T21:34:44.151Z,22.50
2018-01-28T21:37:12.494Z,20.90
2018-01-28T21:39:40.913Z,23.00
2018-01-28T21:42:09.226Z,23.07
2018-01-28T21:44:37.592Z,19.77
2018-01-28T21:47:05.925Z,19.05
2018-01-28T21:49:34.406Z,21.63
2018-01-28T21:52:02.762Z,19.00
2018-01-28T21:54:31.112Z,19.17
2018-01-28T21:56:59.457Z,20.83
2018-01-28T21:59:27.855Z,21.87
2018-01-28T22:01:56.145Z,22.80
2018-01-28T22:04:24.523Z,22.13
2018-01-28T22:06:52.915Z,21.40
2018-01-28T22:09:31.978Z,21.80
2018-01-28T22:12:00.317Z,20.53
2018-01-28T22:14:28.679Z,19.90
2018-01-28T22:16:57.048Z,19.45
2018-01-28T22:19:25.439Z,18.27
2018-01-28T22:21:54.606Z,19.17
2018-01-28T22:24:22.958Z,19.03
2018-01-28T22:26:51.305Z,15.70
2018-01-28T22:29:19.656Z,18.87
2018-01-28T22:31:47.991Z,18.17
2018-01-28T22:34:16.344Z,18.20
2018-01-28T22:36:44.686Z,16.92
2018-01-28T22:39:13.034Z,16.57
2018-01-28T22:41:42.182Z,16.83
2018-01-28T22:44:10.560Z,15.60
2018-01-28T22:46:38.899Z,13.87
2018-01-28T22:49:07.266Z,14.23
2018-01-28T22:51:35.609Z,15.97
2018-01-28T22:54:03.970Z,17.05
2018-01-28T22:56:32.305Z,15.83
2018-01-28T22:59:00.661Z,15.57
2018-01-28T23:01:32.985Z,15.40
2018-01-28T23:04:01.341Z,14.95
2018-01-28T23:06:29.685Z,15.43
2018-01-28T23:08:58.047Z,13.30
2018-01-28T23:11:26.386Z,12.80
2018-01-28T23:13:54.749Z,15.23
2018-01-28T23:16:23.093Z,15.45
2018-01-28T23:18:51.426Z,15.38
2018-01-28T23:21:19.780Z,15.32
2018-01-28T23:23:48.121Z,14.43
2018-01-28T23:26:16.472Z,17.55
2018-01-28T23:28:44.874Z,17.45
2018-01-28T23:31:13.191Z,17.02
2018-01-28T23:33:41.529Z,16.12
2018-01-28T23:36:11.257Z,16.60
2018-01-28T23:38:39.594Z,17.15
2018-01-28T23:41:07.951Z,17.73
2018-01-28T23:43:36.279Z,18.15
2018-01-28T23:46:04.632Z,16.50
2018-01-28T23:48:32.970Z,17.10
2018-01-28T23:51:01.322Z,18.12
2018-01-28T23:53:29.660Z,16.35
2018-01-28T23:55:58.013Z,19.05
2018-01-28T23:58:26.345Z,18.10
